createdAt,value
2022-12-28T00:00:07.413Z,0.50
2022-12-28T00:00:18.394Z,0.60
2022-12-28T00:00:29.428Z,0.60
2022-12-28T00:00:40.412Z,0.50
2022-12-28T00:00:51.384Z,0.50
2022-12-28T00:01:02.350Z,0.60
2022-12-28T00:01:13.354Z,0.60
2022-12-28T00:01:24.366Z,0.50
2022-12-28T00:01:35.417Z,0.50
2022-12-28T00:01:46.394Z,0.60
2022-12-28T00:01:57.428Z,0.80
2022-12-28T00:02:08.444Z,0.80
2022-12-28T00:02:19.486Z,0.80
2022-12-28T00:02:30.461Z,0.60
2022-12-28T00:02:41.446Z,0.50
2022-12-28T00:02:52.425Z,0.40
2022-12-28T00:03:03.409Z,0.30
2022-12-28T00:03:14.436Z,0.40
2022-12-28T00:03:25.401Z,0.50
2022-12-28T00:03:36.409Z,0.70
2022-12-28T00:03:47.406Z,0.60
2022-12-28T00:03:58.419Z,0.60
2022-12-28T00:04:09.403Z,0.70
2022-12-28T00:04:20.421Z,0.70
2022-12-28T00:04:31.409Z,0.70
2022-12-28T00:04:42.452Z,0.50
2022-12-28T00:04:53.438Z,0.80
2022-12-28T00:05:04.457Z,0.70
2022-12-28T00:05:15.416Z,0.70
2022-12-28T00:05:26.431Z,0.70
2022-12-28T00:05:37.426Z,0.60
2022-12-28T00:05:48.429Z,0.70
2022-12-28T00:05:59.426Z,1.00
2022-12-28T00:06:10.434Z,1.00
2022-12-28T00:06:21.436Z,0.70
2022-12-28T00:06:32.445Z,0.50
2022-12-28T00:06:43.434Z,0.50
2022-12-28T00:06:54.442Z,0.60
2022-12-28T00:07:05.440Z,0.60
2022-12-28T00:07:16.452Z,0.50
2022-12-28T00:07:27.503Z,0.40
2022-12-28T00:07:38.447Z,0.40
2022-12-28T00:07:49.444Z,0.60
2022-12-28T00:08:00.446Z,0.60
2022-12-28T00:08:11.447Z,0.60
2022-12-28T00:08:22.450Z,0.50
2022-12-28T00:08:33.455Z,0.60
2022-12-28T00:08:44.463Z,0.70
2022-12-28T00:08:55.461Z,0.60
2022-12-28T00:09:06.465Z,0.40
2022-12-28T00:09:17.476Z,0.50
2022-12-28T00:09:28.467Z,0.70
2022-12-28T00:09:39.484Z,0.60
2022-12-28T00:09:50.496Z,0.90
2022-12-28T00:10:01.501Z,1.00
2022-12-28T00:10:12.485Z,0.90
2022-12-28T00:11:08.239Z,0.40
2022-12-28T00:11:08.266Z,0.50
2022-12-28T00:11:08.367Z,0.40
2022-12-28T00:11:08.997Z,0.40
2022-12-28T00:11:12.312Z,0.40
2022-12-28T00:11:26.651Z,0.50
2022-12-28T00:11:31.215Z,0.50
2022-12-28T00:11:40.578Z,0.40
2022-12-28T00:11:51.512Z,0.40
2022-12-28T00:12:02.546Z,0.40
2022-12-28T00:12:13.537Z,0.40
2022-12-28T00:12:24.523Z,0.50
2022-12-28T00:12:35.602Z,0.60
2022-12-28T00:12:46.525Z,0.80
2022-12-28T00:12:57.545Z,0.70
2022-12-28T00:13:08.540Z,0.80
2022-12-28T00:13:19.537Z,0.70
2022-12-28T00:13:30.537Z,0.80
2022-12-28T00:13:41.554Z,0.70
2022-12-28T00:13:52.547Z,0.90
2022-12-28T00:14:03.550Z,0.60
2022-12-28T00:14:14.546Z,0.90
2022-12-28T00:14:25.555Z,0.70
2022-12-28T00:14:36.557Z,0.50
2022-12-28T00:14:47.551Z,0.50
2022-12-28T00:14:58.564Z,0.50
2022-12-28T00:15:09.567Z,0.40
2022-12-28T00:15:20.605Z,0.50
2022-12-28T00:15:31.566Z,0.50
2022-12-28T00:15:42.575Z,0.50
2022-12-28T00:15:53.579Z,0.50
2022-12-28T00:16:04.682Z,0.50
2022-12-28T00:16:15.636Z,0.60
2022-12-28T00:16:26.615Z,0.50
2022-12-28T00:16:37.640Z,0.50
2022-12-28T00:16:48.697Z,0.40
2022-12-28T00:16:59.583Z,0.60
2022-12-28T00:17:10.578Z,0.60
2022-12-28T00:17:21.578Z,0.70
2022-12-28T00:17:32.591Z,0.50
2022-12-28T00:17:43.586Z,0.50
2022-12-28T00:17:54.584Z,0.50
2022-12-28T00:18:05.627Z,0.50
2022-12-28T00:18:16.587Z,0.40
2022-12-28T00:18:27.587Z,0.40
2022-12-28T00:18:38.609Z,0.60
2022-12-28T00:18:49.592Z,0.90
2022-12-28T00:19:00.601Z,0.80
2022-12-28T00:19:11.620Z,0.80
2022-12-28T00:19:22.590Z,0.50
2022-12-28T00:19:33.599Z,0.50
2022-12-28T00:19:44.661Z,0.50
2022-12-28T00:19:55.596Z,0.40
2022-12-28T00:20:06.603Z,0.70
2022-12-28T00:20:17.604Z,0.80
2022-12-28T00:20:28.598Z,0.70
2022-12-28T00:20:39.602Z,0.70
2022-12-28T00:20:50.638Z,0.40
2022-12-28T00:21:01.621Z,0.70
2022-12-28T00:21:12.608Z,0.60
2022-12-28T00:21:23.628Z,0.70
2022-12-28T00:21:34.669Z,0.60
2022-12-28T00:21:45.640Z,0.50
2022-12-28T00:21:56.622Z,0.40
2022-12-28T00:22:07.639Z,0.40
2022-12-28T00:22:18.636Z,0.40
2022-12-28T00:22:29.632Z,0.70
2022-12-28T00:22:40.624Z,0.80
2022-12-28T00:22:51.633Z,0.70
2022-12-28T00:23:02.631Z,0.60
2022-12-28T00:23:13.634Z,0.50
2022-12-28T00:23:24.629Z,0.40
2022-12-28T00:23:35.644Z,0.50
2022-12-28T00:23:46.649Z,0.70
2022-12-28T00:23:58.104Z,0.80
2022-12-28T00:24:08.654Z,0.80
2022-12-28T00:24:19.661Z,0.50
2022-12-28T00:24:30.655Z,0.50
2022-12-28T00:24:41.656Z,0.50
2022-12-28T00:24:52.688Z,0.50
2022-12-28T00:25:03.666Z,0.60
2022-12-28T00:25:14.657Z,0.70
2022-12-28T00:25:25.663Z,0.90
2022-12-28T00:25:36.690Z,0.90
2022-12-28T00:25:47.673Z,0.80
2022-12-28T00:25:58.661Z,0.50
2022-12-28T00:26:09.678Z,0.70
2022-12-28T00:26:20.667Z,0.60
2022-12-28T00:26:31.681Z,0.60
2022-12-28T00:26:42.671Z,0.30
2022-12-28T00:26:53.679Z,0.50
2022-12-28T00:27:04.671Z,0.50
2022-12-28T00:27:15.676Z,0.50
2022-12-28T00:27:26.726Z,0.60
2022-12-28T00:27:37.681Z,0.50
2022-12-28T00:27:48.682Z,0.50
2022-12-28T00:27:59.683Z,0.40
2022-12-28T00:28:10.685Z,0.70
2022-12-28T00:28:21.684Z,0.70
2022-12-28T00:28:32.686Z,0.50
2022-12-28T00:28:43.699Z,0.30
2022-12-28T00:29:00.044Z,0.40
2022-12-28T00:29:06.698Z,0.70
2022-12-28T00:29:16.695Z,0.90
2022-12-28T00:29:27.726Z,1.00
2022-12-28T00:29:38.705Z,0.70
2022-12-28T00:29:49.703Z,0.50
2022-12-28T00:30:00.715Z,0.50
2022-12-28T00:30:11.718Z,0.60
2022-12-28T00:30:22.719Z,0.60
2022-12-28T00:30:33.717Z,0.50
2022-12-28T00:30:44.727Z,0.50
2022-12-28T00:30:55.721Z,0.40
2022-12-28T00:31:06.717Z,0.40
2022-12-28T00:31:17.748Z,0.40
2022-12-28T00:31:28.827Z,0.40
2022-12-28T00:31:39.811Z,0.70
2022-12-28T00:31:50.988Z,0.90
2022-12-28T00:32:01.791Z,0.80
2022-12-28T00:32:12.738Z,0.90
2022-12-28T00:32:23.727Z,0.80
2022-12-28T00:32:34.738Z,0.90
2022-12-28T00:32:45.742Z,0.70
2022-12-28T00:32:56.732Z,0.50
2022-12-28T00:33:07.738Z,0.50
2022-12-28T00:33:18.741Z,0.40
2022-12-28T00:33:29.747Z,1.00
2022-12-28T00:33:40.749Z,0.90
2022-12-28T00:33:51.749Z,0.90
2022-12-28T00:34:02.761Z,0.50
2022-12-28T00:34:13.753Z,0.80
2022-12-28T00:34:24.759Z,0.90
2022-12-28T00:34:35.800Z,0.90
2022-12-28T00:34:46.778Z,0.90
2022-12-28T00:34:57.766Z,1.20
2022-12-28T00:35:08.768Z,0.80
2022-12-28T00:35:19.772Z,0.70
2022-12-28T00:35:30.768Z,0.40
2022-12-28T00:35:41.788Z,0.50
2022-12-28T00:35:52.793Z,0.50
2022-12-28T00:36:03.799Z,0.60
2022-12-28T00:36:14.804Z,0.80
2022-12-28T00:37:08.386Z,0.80
2022-12-28T00:37:09.011Z,0.70
2022-12-28T00:37:10.863Z,0.70
2022-12-28T00:37:11.034Z,0.90
2022-12-28T00:37:13.215Z,0.50
2022-12-28T00:37:20.799Z,0.70
2022-12-28T00:37:31.802Z,0.60
2022-12-28T00:37:42.830Z,0.80
2022-12-28T00:37:53.808Z,0.70
2022-12-28T00:38:04.805Z,0.70
2022-12-28T00:38:15.814Z,0.60
2022-12-28T00:38:26.815Z,0.80
2022-12-28T00:38:37.820Z,0.80
2022-12-28T00:38:48.836Z,0.60
2022-12-28T00:38:59.827Z,0.60
2022-12-28T00:39:10.821Z,0.70
2022-12-28T00:39:21.841Z,1.00
2022-12-28T00:39:32.833Z,0.90
2022-12-28T00:39:43.832Z,0.90
2022-12-28T00:39:54.831Z,0.60
2022-12-28T00:40:05.835Z,0.60
2022-12-28T00:40:23.611Z,0.50
2022-12-28T00:40:28.841Z,0.50
2022-12-28T00:40:38.839Z,0.50
2022-12-28T00:40:49.850Z,0.40
2022-12-28T00:41:00.845Z,0.30
2022-12-28T00:41:11.859Z,0.30
2022-12-28T00:41:22.846Z,0.40
2022-12-28T00:41:33.861Z,0.50
2022-12-28T00:41:44.900Z,0.60
2022-12-28T00:41:55.866Z,0.60
2022-12-28T00:42:06.859Z,0.60
2022-12-28T00:42:17.867Z,0.70
2022-12-28T00:42:28.857Z,0.60
2022-12-28T00:42:39.886Z,0.60
2022-12-28T00:42:50.899Z,0.90
2022-12-28T00:43:01.871Z,0.80
2022-12-28T00:43:12.897Z,1.00
2022-12-28T00:43:23.868Z,0.80
2022-12-28T00:43:34.870Z,0.80
2022-12-28T00:43:45.902Z,0.50
2022-12-28T00:43:56.879Z,0.50
2022-12-28T00:44:07.993Z,0.50
2022-12-28T00:44:18.888Z,0.60
2022-12-28T00:44:29.931Z,0.60
2022-12-28T00:44:40.885Z,0.80
2022-12-28T00:44:51.933Z,0.60
2022-12-28T00:45:02.903Z,0.50
2022-12-28T00:45:13.917Z,0.60
2022-12-28T00:45:24.941Z,0.80
2022-12-28T00:45:35.993Z,0.80
2022-12-28T00:45:46.969Z,0.60
2022-12-28T00:45:57.925Z,0.60
2022-12-28T00:46:08.966Z,0.70
2022-12-28T00:46:19.925Z,0.50
2022-12-28T00:46:30.918Z,0.50
2022-12-28T00:46:41.929Z,0.70
2022-12-28T00:46:52.922Z,1.00
2022-12-28T00:47:03.942Z,1.00
2022-12-28T00:47:14.952Z,1.00
2022-12-28T00:47:25.929Z,1.00
2022-12-28T00:47:36.930Z,0.80
2022-12-28T00:47:47.945Z,0.60
2022-12-28T00:47:58.943Z,0.40
2022-12-28T00:48:09.943Z,0.40
2022-12-28T00:48:20.952Z,0.40
2022-12-28T00:48:31.947Z,0.60
2022-12-28T00:48:42.981Z,0.90
2022-12-28T00:48:53.955Z,1.00
2022-12-28T00:49:04.982Z,0.90
2022-12-28T00:49:15.966Z,0.60
2022-12-28T00:49:27.002Z,0.60
2022-12-28T00:49:37.983Z,0.60
2022-12-28T00:49:48.960Z,0.50
2022-12-28T00:49:59.989Z,1.00
2022-12-28T00:50:10.974Z,1.20
2022-12-28T00:50:21.974Z,1.20
2022-12-28T00:50:32.972Z,0.70
2022-12-28T00:50:43.973Z,0.60
2022-12-28T00:50:54.977Z,0.70
2022-12-28T00:51:05.988Z,0.90
2022-12-28T00:51:16.978Z,0.80
2022-12-28T00:51:28.011Z,0.70
2022-12-28T00:51:38.997Z,0.80
2022-12-28T00:51:49.994Z,0.80
2022-12-28T00:52:00.989Z,0.60
2022-12-28T00:52:12.004Z,0.70
2022-12-28T00:52:22.996Z,0.60
2022-12-28T00:52:34.002Z,0.70
2022-12-28T00:52:44.997Z,0.90
2022-12-28T00:52:55.995Z,0.90
2022-12-28T00:53:07.005Z,0.70
2022-12-28T00:53:17.996Z,0.50
2022-12-28T00:53:29.000Z,0.50
2022-12-28T00:53:39.999Z,0.50
2022-12-28T00:53:50.509Z,-1.00
2022-12-28T00:54:01.507Z,-1.00
2022-12-28T00:54:12.527Z,-1.00
2022-12-28T00:54:23.521Z,-1.00
2022-12-28T00:54:34.545Z,-1.00
2022-12-28T00:54:45.517Z,-1.00
2022-12-28T00:54:56.516Z,-1.00
2022-12-28T00:55:07.526Z,-1.00
2022-12-28T00:55:18.517Z,-1.00
2022-12-28T00:55:29.535Z,-1.00
2022-12-28T00:55:40.531Z,-1.00
2022-12-28T00:55:51.520Z,-1.00
2022-12-28T00:56:02.538Z,-1.00
2022-12-28T00:56:13.525Z,-1.00
2022-12-28T00:56:24.544Z,-1.00
2022-12-28T00:56:35.559Z,-1.00
2022-12-28T00:56:46.530Z,-1.00
2022-12-28T00:56:57.547Z,-1.00
2022-12-28T00:57:08.547Z,-1.00
2022-12-28T00:57:19.543Z,-1.00
2022-12-28T00:57:30.544Z,-1.00
2022-12-28T00:57:41.554Z,-1.00
2022-12-28T00:57:52.549Z,-1.00
2022-12-28T00:58:03.549Z,-1.00
2022-12-28T00:58:14.548Z,-1.00
2022-12-28T00:58:25.548Z,-1.00
2022-12-28T00:58:36.568Z,-1.00
2022-12-28T00:58:47.579Z,-1.00
2022-12-28T00:58:58.621Z,-1.00
2022-12-28T00:59:09.566Z,-1.00
2022-12-28T00:59:20.577Z,-1.00
2022-12-28T00:59:31.565Z,-1.00
2022-12-28T00:59:42.585Z,-1.00
2022-12-28T00:59:53.569Z,-1.00
2022-12-28T01:00:04.577Z,-1.00
2022-12-28T01:00:15.572Z,-1.00
2022-12-28T01:00:26.576Z,-1.00
2022-12-28T01:00:37.599Z,-1.00
2022-12-28T01:00:48.609Z,-1.00
2022-12-28T01:00:59.665Z,-1.00
2022-12-28T01:01:10.756Z,-1.00
2022-12-28T01:01:21.717Z,-1.00
2022-12-28T01:01:32.717Z,-1.00
2022-12-28T01:01:43.713Z,-1.00
2022-12-28T01:01:54.742Z,-1.00
2022-12-28T01:02:05.834Z,-1.00
2022-12-28T01:02:16.625Z,-1.00
2022-12-28T01:02:27.605Z,-1.00
2022-12-28T01:02:38.666Z,-1.00
2022-12-28T01:02:49.620Z,-1.00
2022-12-28T01:03:00.694Z,-1.00
2022-12-28T01:03:11.703Z,-1.00
2022-12-28T01:03:22.602Z,-1.00
2022-12-28T01:03:33.603Z,-1.00
2022-12-28T01:03:44.610Z,-1.00
2022-12-28T01:03:55.612Z,-1.00
2022-12-28T01:04:06.634Z,-1.00
2022-12-28T01:04:17.615Z,-1.00
2022-12-28T01:04:28.617Z,-1.00
2022-12-28T01:04:39.627Z,-1.00
2022-12-28T01:04:50.617Z,-1.00
2022-12-28T01:05:01.649Z,-1.00
2022-12-28T01:05:12.643Z,-1.00
2022-12-28T01:05:23.626Z,-1.00
2022-12-28T01:05:34.633Z,-1.00
2022-12-28T01:05:45.636Z,-1.00
2022-12-28T01:05:56.641Z,-1.00
2022-12-28T01:06:07.639Z,-1.00
2022-12-28T01:06:18.670Z,-1.00
2022-12-28T01:06:29.651Z,-1.00
2022-12-28T01:06:40.661Z,-1.00
2022-12-28T01:06:51.646Z,-1.00
2022-12-28T01:07:02.648Z,-1.00
2022-12-28T01:07:13.648Z,-1.00
2022-12-28T01:07:24.651Z,-1.00
2022-12-28T01:07:35.655Z,-1.00
2022-12-28T01:07:46.662Z,-1.00
2022-12-28T01:07:57.691Z,-1.00
2022-12-28T01:08:08.657Z,-1.00
2022-12-28T01:08:19.658Z,-1.00
2022-12-28T01:08:30.664Z,-1.00
2022-12-28T01:08:41.666Z,-1.00
2022-12-28T01:08:52.672Z,-1.00
2022-12-28T01:09:03.669Z,-1.00
2022-12-28T01:09:14.673Z,-1.00
2022-12-28T01:09:25.665Z,-1.00
2022-12-28T01:09:36.667Z,-1.00
2022-12-28T01:09:47.681Z,-1.00
2022-12-28T01:09:58.676Z,-1.00
2022-12-28T01:10:09.683Z,-1.00
2022-12-28T01:10:20.676Z,-1.00
2022-12-28T01:10:31.688Z,-1.00
2022-12-28T01:10:42.678Z,-1.00
2022-12-28T01:10:53.680Z,-1.00
2022-12-28T01:11:04.686Z,-1.00
2022-12-28T01:11:15.681Z,-1.00
2022-12-28T01:11:26.698Z,-1.00
2022-12-28T01:11:37.679Z,-1.00
2022-12-28T01:11:48.691Z,-1.00
2022-12-28T01:11:59.693Z,-1.00
2022-12-28T01:12:10.698Z,-1.00
2022-12-28T01:12:21.740Z,-1.00
2022-12-28T01:12:37.885Z,-1.00
2022-12-28T01:12:44.714Z,-1.00
2022-12-28T01:12:54.701Z,-1.00
2022-12-28T01:13:05.710Z,-1.00
2022-12-28T01:13:16.701Z,-1.00
2022-12-28T01:13:27.705Z,-1.00
2022-12-28T01:13:38.721Z,-1.00
2022-12-28T01:13:49.714Z,-1.00
2022-12-28T01:14:00.744Z,-1.00
2022-12-28T01:14:11.717Z,-1.00
2022-12-28T01:14:22.721Z,-1.00
2022-12-28T01:14:33.730Z,-1.00
2022-12-28T01:14:44.722Z,-1.00
2022-12-28T01:14:55.721Z,-1.00
2022-12-28T01:15:06.729Z,-1.00
2022-12-28T01:15:17.727Z,-1.00
2022-12-28T01:15:28.737Z,-1.00
2022-12-28T01:15:39.736Z,-1.00
2022-12-28T01:15:50.732Z,-1.00
2022-12-28T01:16:01.817Z,-1.00
2022-12-28T01:16:12.759Z,-1.00
2022-12-28T01:16:23.297Z,0.90
2022-12-28T01:16:34.441Z,0.60
2022-12-28T01:16:45.370Z,0.80
2022-12-28T01:16:56.361Z,0.80
2022-12-28T01:17:07.251Z,0.80
2022-12-28T01:17:18.251Z,0.80
2022-12-28T01:17:29.279Z,0.90
2022-12-28T01:17:40.255Z,0.70
2022-12-28T01:17:51.258Z,0.80
2022-12-28T01:18:02.255Z,0.70
2022-12-28T01:18:13.257Z,0.80
2022-12-28T01:18:24.260Z,0.90
2022-12-28T01:18:35.271Z,1.00
2022-12-28T01:18:46.264Z,0.70
2022-12-28T01:18:57.254Z,0.90
2022-12-28T01:19:08.289Z,0.90
2022-12-28T01:19:19.260Z,0.70
2022-12-28T01:19:30.262Z,0.60
2022-12-28T01:19:41.260Z,0.70
2022-12-28T01:19:54.144Z,0.70
2022-12-28T01:20:03.283Z,0.80
2022-12-28T01:20:14.293Z,0.70
2022-12-28T01:20:25.276Z,1.00
2022-12-28T01:20:36.280Z,0.90
2022-12-28T01:20:47.277Z,1.00
2022-12-28T01:20:58.281Z,1.00
2022-12-28T01:21:09.278Z,1.00
2022-12-28T01:21:20.282Z,0.60
2022-12-28T01:21:31.282Z,0.60
2022-12-28T01:21:42.292Z,0.80
2022-12-28T01:21:53.310Z,0.70
2022-12-28T01:22:04.302Z,0.80
2022-12-28T01:22:15.297Z,0.70
2022-12-28T01:22:26.303Z,1.00
2022-12-28T01:22:37.315Z,0.90
2022-12-28T01:22:48.307Z,0.90
2022-12-28T01:22:59.300Z,0.80
2022-12-28T01:23:10.313Z,1.00
2022-12-28T01:23:21.314Z,1.00
2022-12-28T01:23:32.324Z,1.10
2022-12-28T01:23:43.320Z,0.90
2022-12-28T01:23:54.329Z,1.10
2022-12-28T01:24:05.343Z,0.80
2022-12-28T01:24:16.359Z,0.70
2022-12-28T01:24:27.334Z,0.80
2022-12-28T01:24:38.348Z,0.90
2022-12-28T01:24:49.367Z,0.80
2022-12-28T01:25:00.346Z,0.70
2022-12-28T01:25:11.352Z,0.90
2022-12-28T01:25:22.361Z,0.90
2022-12-28T01:25:33.355Z,0.80
2022-12-28T01:25:44.364Z,0.70
2022-12-28T01:25:55.367Z,0.70
2022-12-28T01:26:06.361Z,0.60
2022-12-28T01:26:17.376Z,0.50
2022-12-28T01:26:28.387Z,0.70
2022-12-28T01:26:39.378Z,1.10
2022-12-28T01:26:50.385Z,1.10
2022-12-28T01:27:01.379Z,1.40
2022-12-28T01:27:12.380Z,1.20
2022-12-28T01:27:23.382Z,1.20
2022-12-28T01:27:34.393Z,0.90
2022-12-28T01:27:45.384Z,1.10
2022-12-28T01:27:56.397Z,0.90
2022-12-28T01:28:07.385Z,0.80
2022-12-28T01:28:18.394Z,0.90
2022-12-28T01:28:29.399Z,1.00
2022-12-28T01:28:40.394Z,1.00
2022-12-28T01:28:51.408Z,0.90
2022-12-28T01:29:02.437Z,0.80
2022-12-28T01:29:13.403Z,0.90
2022-12-28T01:29:24.414Z,0.90
2022-12-28T01:29:35.418Z,0.90
2022-12-28T01:29:46.412Z,0.70
2022-12-28T01:29:57.417Z,0.80
2022-12-28T01:30:08.440Z,0.90
2022-12-28T01:30:19.413Z,1.00
2022-12-28T01:30:30.479Z,1.00
2022-12-28T01:30:41.415Z,0.90
2022-12-28T01:30:52.423Z,0.70
2022-12-28T01:31:03.428Z,0.70
2022-12-28T01:31:14.427Z,0.60
2022-12-28T01:31:25.449Z,0.80
2022-12-28T01:31:36.491Z,1.00
2022-12-28T01:31:47.471Z,0.80
2022-12-28T01:31:58.459Z,0.80
2022-12-28T01:32:09.503Z,0.80
2022-12-28T01:32:20.436Z,1.10
2022-12-28T01:32:31.435Z,1.10
2022-12-28T01:32:42.440Z,0.90
2022-12-28T01:32:53.439Z,0.70
2022-12-28T01:33:04.449Z,0.80
2022-12-28T01:33:15.440Z,0.70
2022-12-28T01:33:26.444Z,0.80
2022-12-28T01:33:37.440Z,0.90
2022-12-28T01:33:48.449Z,1.00
2022-12-28T01:33:59.441Z,0.90
2022-12-28T01:34:10.459Z,0.70
2022-12-28T01:34:21.450Z,0.90
2022-12-28T01:34:32.454Z,0.80
2022-12-28T01:34:43.464Z,0.70
2022-12-28T01:34:54.459Z,0.90
2022-12-28T01:35:05.464Z,0.90
2022-12-28T01:35:16.495Z,1.00
2022-12-28T01:35:27.474Z,0.90
2022-12-28T01:35:38.477Z,0.80
2022-12-28T01:35:49.470Z,0.70
2022-12-28T01:36:00.488Z,0.80
2022-12-28T01:36:11.484Z,0.90
2022-12-28T01:36:22.486Z,0.70
2022-12-28T01:36:33.481Z,0.90
2022-12-28T01:36:44.519Z,0.80
2022-12-28T01:36:55.486Z,1.10
2022-12-28T01:37:06.486Z,1.20
2022-12-28T01:37:17.489Z,1.10
2022-12-28T01:37:28.501Z,0.90
2022-12-28T01:37:39.490Z,0.50
2022-12-28T01:37:50.493Z,0.40
2022-12-28T01:38:01.501Z,0.50
2022-12-28T01:38:12.497Z,1.00
2022-12-28T01:38:23.495Z,1.00
2022-12-28T01:38:34.504Z,1.20
2022-12-28T01:38:45.523Z,1.00
2022-12-28T01:38:56.523Z,0.90
2022-12-28T01:39:07.508Z,1.00
2022-12-28T01:39:18.503Z,1.00
2022-12-28T01:39:29.507Z,0.90
2022-12-28T01:39:40.514Z,0.80
2022-12-28T01:39:51.510Z,0.70
2022-12-28T01:40:02.519Z,0.80
2022-12-28T01:40:13.514Z,0.90
2022-12-28T01:40:24.520Z,1.00
2022-12-28T01:40:35.552Z,0.90
2022-12-28T01:40:46.524Z,0.60
2022-12-28T01:40:57.529Z,0.90
2022-12-28T01:41:08.523Z,1.10
2022-12-28T01:41:19.532Z,1.20
2022-12-28T01:41:30.529Z,1.00
2022-12-28T01:41:41.537Z,0.80
2022-12-28T01:41:52.538Z,0.90
2022-12-28T01:42:03.532Z,0.70
2022-12-28T01:42:14.534Z,0.60
2022-12-28T01:42:25.527Z,0.60
2022-12-28T01:42:36.537Z,0.60
2022-12-28T01:42:47.544Z,0.70
2022-12-28T01:42:58.544Z,0.50
2022-12-28T01:43:09.567Z,0.50
2022-12-28T01:43:29.476Z,0.60
2022-12-28T01:43:32.548Z,1.00
2022-12-28T01:43:42.561Z,1.20
2022-12-28T01:43:53.566Z,1.40
2022-12-28T01:44:04.586Z,1.20
2022-12-28T01:44:15.560Z,1.00
2022-12-28T01:44:26.583Z,0.80
2022-12-28T01:44:37.573Z,0.90
2022-12-28T01:44:48.600Z,1.00
2022-12-28T01:44:59.573Z,0.90
2022-12-28T01:45:10.584Z,0.80
2022-12-28T01:45:21.584Z,0.90
2022-12-28T01:45:32.613Z,1.00
2022-12-28T01:45:43.604Z,1.00
2022-12-28T01:45:54.684Z,0.70
2022-12-28T01:46:05.618Z,0.70
2022-12-28T01:46:16.674Z,0.70
2022-12-28T01:46:27.610Z,1.30
2022-12-28T01:46:38.605Z,1.10
2022-12-28T01:46:49.616Z,0.90
2022-12-28T01:47:00.621Z,0.60
2022-12-28T01:47:11.626Z,1.30
2022-12-28T01:47:22.625Z,1.30
2022-12-28T01:47:33.626Z,1.50
2022-12-28T01:47:44.625Z,0.90
2022-12-28T01:47:55.635Z,1.00
2022-12-28T01:48:06.690Z,0.80
2022-12-28T01:48:17.646Z,0.80
2022-12-28T01:48:28.649Z,0.70
2022-12-28T01:48:39.645Z,0.70
2022-12-28T01:48:50.640Z,0.90
2022-12-28T01:49:01.707Z,1.00
2022-12-28T01:49:12.667Z,1.10
2022-12-28T01:49:23.648Z,1.00
2022-12-28T01:49:34.655Z,1.00
2022-12-28T01:49:45.654Z,0.90
2022-12-28T01:49:56.649Z,1.00
2022-12-28T01:50:07.664Z,1.40
2022-12-28T01:50:18.682Z,1.40
2022-12-28T01:50:29.681Z,1.20
2022-12-28T01:50:40.670Z,0.90
2022-12-28T01:50:51.676Z,1.10
2022-12-28T01:51:02.674Z,1.10
2022-12-28T01:51:13.670Z,0.80
2022-12-28T01:51:24.684Z,0.70
2022-12-28T01:51:35.675Z,0.70
2022-12-28T01:51:46.676Z,1.20
2022-12-28T01:51:57.696Z,1.20
2022-12-28T01:52:08.691Z,1.10
2022-12-28T01:52:19.722Z,0.80
2022-12-28T01:52:30.700Z,0.60
2022-12-28T01:52:41.739Z,0.90
2022-12-28T01:52:52.696Z,1.40
2022-12-28T01:53:03.702Z,1.20
2022-12-28T01:53:14.703Z,1.10
2022-12-28T01:53:25.714Z,0.60
2022-12-28T01:53:36.706Z,0.90
2022-12-28T01:53:47.723Z,0.90
2022-12-28T01:53:58.715Z,0.90
2022-12-28T01:54:09.715Z,0.60
2022-12-28T01:54:20.728Z,1.10
2022-12-28T01:54:31.722Z,1.40
2022-12-28T01:54:42.726Z,1.30
2022-12-28T01:54:53.728Z,0.80
2022-12-28T01:55:04.776Z,0.60
2022-12-28T01:55:15.731Z,0.60
2022-12-28T01:55:26.743Z,0.80
2022-12-28T01:55:37.739Z,0.80
2022-12-28T01:55:48.743Z,1.10
2022-12-28T01:55:59.741Z,1.20
2022-12-28T01:56:10.750Z,1.00
2022-12-28T01:56:21.751Z,0.70
2022-12-28T01:56:32.249Z,-1.00
2022-12-28T01:56:43.260Z,-1.00
2022-12-28T01:56:54.252Z,-1.00
2022-12-28T01:57:05.263Z,-1.00
2022-12-28T01:57:16.263Z,-1.00
2022-12-28T01:57:27.271Z,-1.00
2022-12-28T01:57:38.272Z,-1.00
2022-12-28T01:57:49.278Z,-1.00
2022-12-28T01:58:00.273Z,-1.00
2022-12-28T01:58:11.283Z,-1.00
2022-12-28T01:58:22.279Z,-1.00
2022-12-28T01:58:33.299Z,-1.00
2022-12-28T01:58:44.288Z,-1.00
2022-12-28T01:58:55.290Z,-1.00
2022-12-28T01:59:06.292Z,-1.00
2022-12-28T01:59:17.295Z,-1.00
2022-12-28T01:59:28.298Z,-1.00
2022-12-28T01:59:39.311Z,-1.00
2022-12-28T01:59:50.347Z,-1.00
2022-12-28T02:00:01.340Z,-1.00
2022-12-28T02:00:12.312Z,-1.00
2022-12-28T02:00:23.339Z,-1.00
2022-12-28T02:00:34.317Z,-1.00
2022-12-28T02:00:45.320Z,-1.00
2022-12-28T02:00:56.437Z,-1.00
2022-12-28T02:01:07.439Z,-1.00
2022-12-28T02:01:18.445Z,-1.00
2022-12-28T02:01:29.448Z,-1.00
2022-12-28T02:01:40.452Z,-1.00
2022-12-28T02:01:51.466Z,-1.00
2022-12-28T02:02:02.586Z,-1.00
2022-12-28T02:02:13.564Z,-1.00
2022-12-28T02:02:24.505Z,-1.00
2022-12-28T02:02:35.643Z,-1.00
2022-12-28T02:02:46.444Z,-1.00
2022-12-28T02:02:57.384Z,-1.00
2022-12-28T02:03:08.374Z,-1.00
2022-12-28T02:03:19.375Z,-1.00
2022-12-28T02:03:30.366Z,-1.00
2022-12-28T02:03:41.365Z,-1.00
2022-12-28T02:03:52.401Z,-1.00
2022-12-28T02:04:03.376Z,-1.00
2022-12-28T02:04:14.361Z,-1.00
2022-12-28T02:04:25.364Z,-1.00
2022-12-28T02:04:36.394Z,-1.00
2022-12-28T02:04:47.363Z,-1.00
2022-12-28T02:04:58.369Z,-1.00
2022-12-28T02:05:09.375Z,-1.00
2022-12-28T02:05:20.384Z,-1.00
2022-12-28T02:05:31.419Z,-1.00
2022-12-28T02:05:42.399Z,-1.00
2022-12-28T02:05:53.389Z,-1.00
2022-12-28T02:06:04.400Z,-1.00
2022-12-28T02:06:15.395Z,-1.00
2022-12-28T02:06:26.450Z,-1.00
2022-12-28T02:06:37.427Z,-1.00
2022-12-28T02:06:48.417Z,-1.00
2022-12-28T02:06:59.420Z,-1.00
2022-12-28T02:07:10.410Z,-1.00
2022-12-28T02:07:21.424Z,-1.00
2022-12-28T02:07:32.427Z,-1.00
2022-12-28T02:07:43.442Z,-1.00
2022-12-28T02:07:54.466Z,-1.00
2022-12-28T02:08:07.260Z,-1.00
2022-12-28T02:08:16.438Z,-1.00
2022-12-28T02:08:27.443Z,-1.00
2022-12-28T02:08:38.457Z,-1.00
2022-12-28T02:08:49.458Z,-1.00
2022-12-28T02:08:59.953Z,0.50
2022-12-28T02:09:10.966Z,0.50
2022-12-28T02:09:21.979Z,0.60
2022-12-28T02:09:32.966Z,0.80
2022-12-28T02:09:43.972Z,1.00
2022-12-28T02:10:41.280Z,1.40
2022-12-28T02:10:42.447Z,1.20
2022-12-28T02:10:42.902Z,1.20
2022-12-28T02:10:43.357Z,1.80
2022-12-28T02:10:44.990Z,1.00
2022-12-28T02:10:51.004Z,0.80
2022-12-28T02:11:00.999Z,0.60
2022-12-28T02:11:12.003Z,0.60
2022-12-28T02:11:23.005Z,0.80
2022-12-28T02:11:34.009Z,1.00
2022-12-28T02:11:45.016Z,1.00
2022-12-28T02:11:56.025Z,0.90
2022-12-28T02:12:07.020Z,0.70
2022-12-28T02:12:18.028Z,0.90
2022-12-28T02:12:29.061Z,1.00
2022-12-28T02:12:40.103Z,0.90
2022-12-28T02:12:51.073Z,0.90
2022-12-28T02:13:02.150Z,0.70
2022-12-28T02:13:13.076Z,0.80
2022-12-28T02:13:24.035Z,0.80
2022-12-28T02:13:35.035Z,0.70
2022-12-28T02:13:46.039Z,0.70
2022-12-28T02:13:57.046Z,0.90
2022-12-28T02:14:08.080Z,0.90
2022-12-28T02:14:19.050Z,0.80
2022-12-28T02:14:30.048Z,0.90
2022-12-28T02:14:41.055Z,0.80
2022-12-28T02:14:52.057Z,0.90
2022-12-28T02:15:03.064Z,1.30
2022-12-28T02:15:17.094Z,1.50
2022-12-28T02:15:26.072Z,1.70
2022-12-28T02:15:36.067Z,1.10
2022-12-28T02:15:47.094Z,1.00
2022-12-28T02:15:58.077Z,0.90
2022-12-28T02:16:09.078Z,0.90
2022-12-28T02:16:20.238Z,1.00
2022-12-28T02:16:31.135Z,1.00
2022-12-28T02:16:42.124Z,1.30
2022-12-28T02:16:53.205Z,1.30
2022-12-28T02:17:04.129Z,0.90
2022-12-28T02:17:15.090Z,0.60
2022-12-28T02:17:26.088Z,0.50
2022-12-28T02:17:37.103Z,0.70
2022-12-28T02:17:48.125Z,1.10
2022-12-28T02:17:59.098Z,1.40
2022-12-28T02:18:10.109Z,1.60
2022-12-28T02:18:21.119Z,1.30
2022-12-28T02:18:32.099Z,1.00
2022-12-28T02:18:43.108Z,1.00
2022-12-28T02:18:54.104Z,0.90
2022-12-28T02:19:05.105Z,0.90
2022-12-28T02:19:16.121Z,1.10
2022-12-28T02:19:27.109Z,1.20
2022-12-28T02:19:38.200Z,1.60
2022-12-28T02:19:49.113Z,1.40
2022-12-28T02:20:00.178Z,1.40
2022-12-28T02:20:11.122Z,1.10
2022-12-28T02:20:22.135Z,1.00
2022-12-28T02:20:33.147Z,1.00
2022-12-28T02:20:44.127Z,1.00
2022-12-28T02:20:55.150Z,1.10
2022-12-28T02:21:06.124Z,1.20
2022-12-28T02:21:17.135Z,0.90
2022-12-28T02:21:28.141Z,0.80
2022-12-28T02:21:39.140Z,0.70
2022-12-28T02:21:50.141Z,0.80
2022-12-28T02:22:01.148Z,0.80
2022-12-28T02:22:12.154Z,0.70
2022-12-28T02:22:23.154Z,0.90
2022-12-28T02:22:34.149Z,0.80
2022-12-28T02:22:45.159Z,0.90
2022-12-28T02:22:56.160Z,1.30
2022-12-28T02:23:07.160Z,1.10
2022-12-28T02:23:18.161Z,1.30
2022-12-28T02:23:29.164Z,0.80
2022-12-28T02:23:40.165Z,0.80
2022-12-28T02:23:51.170Z,0.90
2022-12-28T02:24:02.174Z,0.90
2022-12-28T02:24:13.197Z,1.00
2022-12-28T02:24:24.178Z,1.00
2022-12-28T02:24:35.180Z,1.40
2022-12-28T02:24:46.186Z,1.20
2022-12-28T02:25:12.231Z,1.10
2022-12-28T02:25:12.691Z,0.70
2022-12-28T02:25:19.191Z,0.70